Time;durP1;ratioP1;P1;durP2;ratioP2;P2;SDS_P1;SDS_P2;PMS_P1;PMS_P2;Temp;Humidity;BMP_temperature;BMP_pressure;BME280_temperature;BME280_humidity;BME280_pressure;Samples;Min_cycle;Max_cycle;Signal;HPM_P1;HPM_P2
2023/05/28 00:02:25;;;;;;;17.10;11.80;;;;;;;;;;10135930;28;20668;-68
2023/05/28 00:07:24;;;;;;;16.05;10.55;;;;;;;;;;10139050;28;20046;-67
2023/05/28 00:12:20;;;;;;;15.93;10.23;;;;;;;;;;10140329;28;20504;-68
2023/05/28 00:17:16;;;;;;;15.82;9.63;;;;;;;;;;10154775;28;20108;-68
2023/05/28 00:22:13;;;;;;;13.80;10.23;;;;;;;;;;10148167;28;20062;-68
2023/05/28 00:27:09;;;;;;;18.52;10.73;;;;;;;;;;10154094;28;20456;-68
2023/05/28 00:32:06;;;;;;;15.50;10.40;;;;;;;;;;10138008;28;20054;-68
2023/05/28 00:37:02;;;;;;;15.27;10.25;;;;;;;;;;10136975;28;20505;-68
2023/05/28 00:41:59;;;;;;;15.80;10.27;;;;;;;;;;10143445;28;20471;-68
2023/05/28 00:46:59;;;;;;;19.75;11.25;;;;;;;;;;10136319;28;20046;-68
2023/05/28 00:51:56;;;;;;;17.17;10.98;;;;;;;;;;10140894;28;20101;-68
2023/05/28 00:56:57;;;;;;;17.23;10.02;;;;;;;;;;10142428;28;20594;-68
2023/05/28 01:01:53;;;;;;;15.18;9.98;;;;;;;;;;10139021;28;20093;-68
2023/05/28 01:06:50;;;;;;;19.90;10.77;;;;;;;;;;10143679;28;20554;-68
2023/05/28 01:11:46;;;;;;;20.90;10.05;;;;;;;;;;10141085;28;20101;-68
2023/05/28 01:16:44;;;;;;;13.45;9.98;;;;;;;;;;10140398;28;20101;-68
2023/05/28 01:21:42;;;;;;;16.42;10.77;;;;;;;;;;10148296;28;20050;-68
2023/05/28 01:26:40;;;;;;;13.82;9.50;;;;;;;;;;10147762;28;20508;-68
2023/05/28 01:31:36;;;;;;;15.25;9.60;;;;;;;;;;10143728;28;20078;-68
2023/05/28 01:36:37;;;;;;;13.32;10.55;;;;;;;;;;10148285;28;20520;-68
2023/05/28 01:41:34;;;;;;;16.65;10.95;;;;;;;;;;10140509;28;20802;-68
2023/05/28 01:46:30;;;;;;;14.52;9.98;;;;;;;;;;10141999;28;20066;-68
2023/05/28 01:51:27;;;;;;;17.17;11.18;;;;;;;;;;10134756;28;20074;-68
2023/05/28 01:56:23;;;;;;;19.83;10.35;;;;;;;;;;10139645;28;20458;-68
2023/05/28 02:01:27;;;;;;;17.25;10.88;;;;;;;;;;10141446;28;20042;-68
2023/05/28 02:06:24;;;;;;;20.13;11.20;;;;;;;;;;10135770;28;20055;-68
2023/05/28 02:11:21;;;;;;;17.08;10.65;;;;;;;;;;10125615;28;20042;-68
2023/05/28 02:16:18;;;;;;;15.60;10.05;;;;;;;;;;10129285;28;20054;-68
2023/05/28 02:21:16;;;;;;;15.55;10.38;;;;;;;;;;10136002;28;20038;-68
2023/05/28 02:26:12;;;;;;;16.83;11.35;;;;;;;;;;10143715;28;20054;-68
2023/05/28 02:31:09;;;;;;;17.70;10.57;;;;;;;;;;10138701;28;20042;-68
2023/05/28 02:36:06;;;;;;;16.58;10.68;;;;;;;;;;10138688;28;20144;-68
2023/05/28 02:41:04;;;;;;;16.27;10.55;;;;;;;;;;10142302;28;20104;-68
2023/05/28 02:46:00;;;;;;;17.17;10.25;;;;;;;;;;10139704;28;20046;-68
2023/05/28 02:50:57;;;;;;;15.52;10.63;;;;;;;;;;10136045;28;20042;-68
2023/05/28 02:55:53;;;;;;;17.73;10.57;;;;;;;;;;10132816;28;20070;-68
2023/05/28 03:00:50;;;;;;;19.25;10.70;;;;;;;;;;10147451;28;20046;-68
2023/05/28 03:05:46;;;;;;;17.13;10.60;;;;;;;;;;10130610;28;20045;-68
2023/05/28 03:10:42;;;;;;;15.00;9.75;;;;;;;;;;10130615;28;20042;-68
2023/05/28 03:15:39;;;;;;;14.18;10.25;;;;;;;;;;10144114;28;20493;-68
2023/05/28 03:20:35;;;;;;;16.73;12.43;;;;;;;;;;10146202;28;20054;-68
2023/05/28 03:25:31;;;;;;;16.00;10.48;;;;;;;;;;10133681;28;20105;-67
2023/05/28 03:30:28;;;;;;;18.13;10.55;;;;;;;;;;10147746;28;20138;-68
2023/05/28 03:35:24;;;;;;;13.55;9.45;;;;;;;;;;10148303;28;20055;-68
2023/05/28 03:40:20;;;;;;;18.33;10.90;;;;;;;;;;10136904;28;20050;-68
2023/05/28 03:45:19;;;;;;;15.20;10.52;;;;;;;;;;10133171;28;20077;-68
2023/05/28 03:50:16;;;;;;;15.63;10.88;;;;;;;;;;10140903;28;20043;-68
2023/05/28 03:55:12;;;;;;;15.68;11.10;;;;;;;;;;10148789;28;20054;-68
2023/05/28 04:00:09;;;;;;;15.65;11.25;;;;;;;;;;10130885;28;20051;-68
2023/05/28 04:05:06;;;;;;;16.17;11.13;;;;;;;;;;10136538;28;20047;-68
2023/05/28 04:10:03;;;;;;;19.23;10.93;;;;;;;;;;10139321;28;20051;-68
2023/05/28 04:15:00;;;;;;;14.75;11.40;;;;;;;;;;10143519;28;20089;-68
2023/05/28 04:19:57;;;;;;;18.35;11.05;;;;;;;;;;10142842;28;20678;-68
2023/05/28 04:24:55;;;;;;;13.48;10.48;;;;;;;;;;10132584;28;20570;-68
2023/05/28 04:29:52;;;;;;;17.23;12.00;;;;;;;;;;10133457;28;20096;-68
2023/05/28 04:34:48;;;;;;;12.45;11.20;;;;;;;;;;10130390;28;20057;-68
2023/05/28 04:39:45;;;;;;;16.92;12.35;;;;;;;;;;10134757;28;20724;-68
2023/05/28 04:44:42;;;;;;;15.80;12.00;;;;;;;;;;10135693;28;20047;-68
2023/05/28 04:49:40;;;;;;;16.05;11.73;;;;;;;;;;10127076;28;20051;-70
2023/05/28 04:54:36;;;;;;;14.38;11.63;;;;;;;;;;10132804;28;20061;-68
2023/05/28 04:59:34;;;;;;;14.00;11.30;;;;;;;;;;10134856;28;20038;-68
2023/05/28 05:04:30;;;;;;;19.35;12.57;;;;;;;;;;10142482;28;20657;-68
2023/05/28 05:09:27;;;;;;;17.30;12.32;;;;;;;;;;10129566;28;20456;-68
2023/05/28 05:14:23;;;;;;;14.68;12.52;;;;;;;;;;10146598;28;20441;-68
2023/05/28 05:19:19;;;;;;;14.00;11.07;;;;;;;;;;10142006;28;20499;-68
2023/05/28 05:24:15;;;;;;;15.88;12.30;;;;;;;;;;10148289;28;20077;-68
2023/05/28 05:29:12;;;;;;;15.55;11.32;;;;;;;;;;10135409;28;20046;-68
2023/05/28 05:34:08;;;;;;;16.20;12.18;;;;;;;;;;10151150;28;20038;-68
2023/05/28 05:39:04;;;;;;;13.55;10.52;;;;;;;;;;10136849;28;20101;-68
2023/05/28 05:44:01;;;;;;;16.02;11.15;;;;;;;;;;10146912;28;20138;-68
2023/05/28 05:48:57;;;;;;;17.77;11.23;;;;;;;;;;10147710;28;20100;-67
2023/05/28 05:53:53;;;;;;;17.30;11.07;;;;;;;;;;10138984;28;20532;-68
2023/05/28 05:58:50;;;;;;;14.90;9.65;;;;;;;;;;10130413;28;20386;-68
2023/05/28 06:03:46;;;;;;;18.45;10.98;;;;;;;;;;10146794;28;20453;-67
2023/05/28 06:08:42;;;;;;;14.88;10.35;;;;;;;;;;10140522;28;20050;-68
2023/05/28 06:13:39;;;;;;;18.02;9.77;;;;;;;;;;10140193;28;20765;-67
2023/05/28 06:18:35;;;;;;;17.75;9.38;;;;;;;;;;10149632;28;20051;-68
2023/05/28 06:23:32;;;;;;;17.33;9.65;;;;;;;;;;10147157;28;20055;-68
2023/05/28 06:28:29;;;;;;;18.13;10.60;;;;;;;;;;10137368;28;20105;-68
2023/05/28 06:33:25;;;;;;;17.83;11.02;;;;;;;;;;10144459;28;20047;-68
2023/05/28 06:38:22;;;;;;;21.77;11.55;;;;;;;;;;10140300;28;20055;-69
2023/05/28 06:43:18;;;;;;;16.92;9.98;;;;;;;;;;10144367;28;20051;-68
2023/05/28 06:48:17;;;;;;;16.50;10.32;;;;;;;;;;10130215;28;20110;-68
2023/05/28 06:53:13;;;;;;;17.27;10.63;;;;;;;;;;10145514;28;20108;-69
2023/05/28 06:58:09;;;;;;;12.23;9.18;;;;;;;;;;10130645;28;20587;-68
2023/05/28 07:03:06;;;;;;;20.38;10.00;;;;;;;;;;10137830;28;20061;-68
2023/05/28 07:08:02;;;;;;;19.17;9.80;;;;;;;;;;10151758;28;20481;-66
2023/05/28 07:12:59;;;;;;;14.50;8.80;;;;;;;;;;10136646;28;20050;-68
2023/05/28 07:17:56;;;;;;;19.00;9.38;;;;;;;;;;10147755;28;20125;-68
2023/05/28 07:22:52;;;;;;;12.88;8.35;;;;;;;;;;10147429;28;20147;-69
2023/05/28 07:27:49;;;;;;;14.80;8.75;;;;;;;;;;10135838;28;20038;-69
2023/05/28 07:32:48;;;;;;;13.07;9.05;;;;;;;;;;10144472;28;20050;-69
2023/05/28 07:37:45;;;;;;;17.48;9.50;;;;;;;;;;10142763;28;20109;-69
2023/05/28 07:42:41;;;;;;;15.07;8.95;;;;;;;;;;10138267;28;20575;-68
2023/05/28 07:47:37;;;;;;;18.02;9.00;;;;;;;;;;10139913;28;20051;-69
2023/05/28 07:52:34;;;;;;;13.27;8.75;;;;;;;;;;10143304;28;20046;-69
2023/05/28 07:57:30;;;;;;;23.75;8.02;;;;;;;;;;10128540;28;20046;-69
2023/05/28 08:02:27;;;;;;;13.73;8.85;;;;;;;;;;10124376;28;20046;-68
2023/05/28 08:07:24;;;;;;;14.40;8.68;;;;;;;;;;10142377;28;20054;-68
2023/05/28 08:12:20;;;;;;;12.25;7.80;;;;;;;;;;10135694;28;20042;-68
2023/05/28 08:17:16;;;;;;;13.38;8.80;;;;;;;;;;10130416;28;20070;-68
2023/05/28 08:22:12;;;;;;;14.82;8.27;;;;;;;;;;10131155;28;20093;-68
2023/05/28 08:27:09;;;;;;;12.07;8.38;;;;;;;;;;10142532;28;20125;-68
2023/05/28 08:32:06;;;;;;;14.65;8.73;;;;;;;;;;10138520;28;20050;-68
2023/05/28 08:37:12;;;;;;;13.48;8.25;;;;;;;;;;10143312;28;20046;-68
2023/05/28 08:42:09;;;;;;;12.35;7.93;;;;;;;;;;10141272;28;20548;-69
2023/05/28 08:47:06;;;;;;;14.75;8.38;;;;;;;;;;10149682;28;20057;-68
2023/05/28 08:52:04;;;;;;;11.55;8.63;;;;;;;;;;10153884;28;20069;-68
2023/05/28 08:57:02;;;;;;;11.00;8.40;;;;;;;;;;10138750;28;20044;-69
2023/05/28 09:01:59;;;;;;;12.35;8.65;;;;;;;;;;10139640;28;20420;-69
2023/05/28 09:06:56;;;;;;;10.73;8.15;;;;;;;;;;10140486;28;20046;-69
2023/05/28 09:11:56;;;;;;;12.30;7.68;;;;;;;;;;10146136;28;20050;-69
2023/05/28 09:17:02;;;;;;;12.88;8.43;;;;;;;;;;10137900;28;20054;-68
2023/05/28 09:21:59;;;;;;;15.65;8.00;;;;;;;;;;10143499;28;20046;-68
2023/05/28 09:26:59;;;;;;;10.52;7.72;;;;;;;;;;10142962;28;20049;-69
2023/05/28 09:31:56;;;;;;;11.60;7.55;;;;;;;;;;10122465;28;20046;-68
2023/05/28 09:36:53;;;;;;;13.70;8.40;;;;;;;;;;10142502;28;20050;-69
2023/05/28 09:41:57;;;;;;;11.73;7.80;;;;;;;;;;10139911;28;20505;-69
2023/05/28 09:46:53;;;;;;;11.85;7.65;;;;;;;;;;10128979;28;20520;-68
2023/05/28 09:51:52;;;;;;;13.30;7.85;;;;;;;;;;10136380;28;20058;-68
2023/05/28 09:56:51;;;;;;;10.13;7.70;;;;;;;;;;10142908;28;20058;-68
2023/05/28 10:01:57;;;;;;;10.65;7.22;;;;;;;;;;10145841;28;20077;-69
2023/05/28 10:06:54;;;;;;;10.88;7.22;;;;;;;;;;10144964;28;20055;-68
2023/05/28 10:11:54;;;;;;;12.55;7.60;;;;;;;;;;10149523;28;20054;-68
2023/05/28 10:16:51;;;;;;;10.40;7.40;;;;;;;;;;10143164;28;20057;-69
2023/05/28 10:21:47;;;;;;;12.80;6.97;;;;;;;;;;10138391;28;20054;-68
2023/05/28 10:26:44;;;;;;;13.30;7.78;;;;;;;;;;10139157;28;20043;-68
2023/05/28 10:31:40;;;;;;;9.75;7.55;;;;;;;;;;10138824;28;20058;-69
2023/05/28 10:36:48;;;;;;;9.38;7.22;;;;;;;;;;10145967;28;20050;-69
2023/05/28 10:41:44;;;;;;;12.50;7.82;;;;;;;;;;10134995;28;20070;-68
2023/05/28 10:46:41;;;;;;;13.90;7.47;;;;;;;;;;10137502;28;20046;-68
2023/05/28 10:51:45;;;;;;;9.68;6.82;;;;;;;;;;10152755;28;20088;-69
2023/05/28 10:57:01;;;;;;;14.10;7.65;;;;;;;;;;10133458;28;20105;-68
2023/05/28 11:02:05;;;;;;;10.00;7.03;;;;;;;;;;10133771;28;20046;-69
2023/05/28 11:07:02;;;;;;;11.35;7.85;;;;;;;;;;10136094;28;20074;-68
2023/05/28 11:11:59;;;;;;;9.35;7.03;;;;;;;;;;10126305;28;20070;-68
2023/05/28 11:16:55;;;;;;;10.02;7.60;;;;;;;;;;10134717;28;20058;-68
2023/05/28 11:21:52;;;;;;;10.27;7.57;;;;;;;;;;10130834;28;20086;-69
2023/05/28 11:26:51;;;;;;;12.10;7.13;;;;;;;;;;10140871;28;20101;-68
2023/05/28 11:31:47;;;;;;;13.43;7.18;;;;;;;;;;10125086;28;20047;-68
2023/05/28 11:36:44;;;;;;;10.63;7.03;;;;;;;;;;10152042;28;20166;-68
2023/05/28 11:41:40;;;;;;;13.38;7.80;;;;;;;;;;10140808;28;20093;-68
2023/05/28 11:46:36;;;;;;;10.85;7.75;;;;;;;;;;10141690;28;20501;-69
2023/05/28 11:51:35;;;;;;;11.07;7.85;;;;;;;;;;10142064;28;20391;-68
2023/05/28 11:56:33;;;;;;;11.38;7.85;;;;;;;;;;10142347;28;20058;-68
2023/05/28 12:01:36;;;;;;;13.73;8.50;;;;;;;;;;10144512;28;20050;-68
2023/05/28 12:06:33;;;;;;;12.55;7.85;;;;;;;;;;10146076;28;20070;-68
2023/05/28 12:11:36;;;;;;;8.50;7.22;;;;;;;;;;10130107;28;20150;-68
2023/05/28 12:16:41;;;;;;;12.70;8.50;;;;;;;;;;10132916;28;20089;-68
2023/05/28 12:21:38;;;;;;;11.00;7.75;;;;;;;;;;10143553;28;20125;-68
2023/05/28 12:26:37;;;;;;;14.68;7.60;;;;;;;;;;10141830;28;20043;-68
2023/05/28 12:31:33;;;;;;;10.85;7.15;;;;;;;;;;10132393;28;20050;-67
2023/05/28 12:36:29;;;;;;;12.98;7.13;;;;;;;;;;10147700;28;20137;-68
2023/05/28 12:41:26;;;;;;;11.85;7.32;;;;;;;;;;10140560;28;20500;-68
2023/05/28 12:46:23;;;;;;;9.13;7.22;;;;;;;;;;10129672;28;20520;-68
2023/05/28 12:51:19;;;;;;;10.70;7.28;;;;;;;;;;10123964;28;20042;-68
2023/05/28 12:56:17;;;;;;;13.38;7.78;;;;;;;;;;10139988;28;20051;-68
2023/05/28 13:01:14;;;;;;;9.73;7.20;;;;;;;;;;10131563;28;20057;-68
2023/05/28 13:06:11;;;;;;;14.68;7.70;;;;;;;;;;10139886;28;20066;-68
2023/05/28 13:11:07;;;;;;;12.68;7.47;;;;;;;;;;10114942;28;20047;-68
2023/05/28 13:16:04;;;;;;;11.27;6.63;;;;;;;;;;10132720;28;20101;-69
2023/05/28 13:21:01;;;;;;;11.80;7.45;;;;;;;;;;10140811;28;20070;-69
2023/05/28 13:25:57;;;;;;;11.07;7.03;;;;;;;;;;10146711;28;20529;-68
2023/05/28 13:30:54;;;;;;;10.13;6.93;;;;;;;;;;10134822;28;20527;-68
2023/05/28 13:35:51;;;;;;;9.85;6.60;;;;;;;;;;10142722;28;20042;-68
2023/05/28 13:40:47;;;;;;;13.52;7.30;;;;;;;;;;10141251;28;20039;-68
2023/05/28 13:45:43;;;;;;;9.45;6.50;;;;;;;;;;10143973;28;20063;-67
2023/05/28 13:50:40;;;;;;;8.52;6.78;;;;;;;;;;10140447;28;20053;-68
2023/05/28 13:55:36;;;;;;;10.90;7.07;;;;;;;;;;10153298;28;20043;-68
2023/05/28 14:00:33;;;;;;;9.20;7.20;;;;;;;;;;10131392;28;20050;-68
2023/05/28 14:05:34;;;;;;;;;;;;;;;;;;10140065;28;20541;-68
2023/05/28 14:10:31;;;;;;;11.02;7.25;;;;;;;;;;10143685;28;19921;-68
2023/05/28 14:15:27;;;;;;;10.95;7.40;;;;;;;;;;10140090;28;20046;-68
2023/05/28 14:20:23;;;;;;;9.20;7.30;;;;;;;;;;10144982;28;20096;-68
2023/05/28 14:25:20;;;;;;;9.75;7.00;;;;;;;;;;10142691;28;20493;-67
2023/05/28 14:30:16;;;;;;;11.32;7.20;;;;;;;;;;10144646;28;20050;-68
2023/05/28 14:35:12;;;;;;;14.63;6.82;;;;;;;;;;10139470;28;20105;-68
2023/05/28 14:40:09;;;;;;;9.13;6.60;;;;;;;;;;10127001;28;20057;-68
2023/05/28 14:45:05;;;;;;;9.73;6.35;;;;;;;;;;10142404;28;20050;-68
2023/05/28 14:50:02;;;;;;;7.78;6.90;;;;;;;;;;10120928;28;20099;-68
2023/05/28 14:54:59;;;;;;;7.90;7.10;;;;;;;;;;10149007;28;20603;-67
2023/05/28 14:59:59;;;;;;;7.65;6.05;;;;;;;;;;10131898;28;20046;-67
2023/05/28 15:04:56;;;;;;;11.77;6.63;;;;;;;;;;10129940;28;20047;-68
2023/05/28 15:09:52;;;;;;;8.38;6.88;;;;;;;;;;10125540;28;20038;-68
2023/05/28 15:14:48;;;;;;;9.00;6.28;;;;;;;;;;10146594;28;20058;-67
2023/05/28 15:19:45;;;;;;;7.50;6.32;;;;;;;;;;10128193;28;20117;-68
2023/05/28 15:24:41;;;;;;;6.90;6.20;;;;;;;;;;10141400;28;20082;-68
2023/05/28 15:29:43;;;;;;;8.65;7.18;;;;;;;;;;10147877;28;20069;-68
2023/05/28 15:34:42;;;;;;;8.38;6.50;;;;;;;;;;10134879;28;20125;-69
2023/05/28 15:39:38;;;;;;;10.27;7.10;;;;;;;;;;10140158;28;20062;-67
2023/05/28 15:44:35;;;;;;;10.25;6.55;;;;;;;;;;10130401;28;20054;-68
2023/05/28 15:49:31;;;;;;;8.80;6.95;;;;;;;;;;10136616;28;20071;-68
2023/05/28 15:54:27;;;;;;;7.47;6.68;;;;;;;;;;10147196;28;20054;-64
2023/05/28 15:59:24;;;;;;;7.90;6.90;;;;;;;;;;10136090;28;20488;-68
2023/05/28 16:04:21;;;;;;;7.90;7.10;;;;;;;;;;10124510;28;20042;-67
2023/05/28 16:09:17;;;;;;;8.05;7.10;;;;;;;;;;10140891;28;20051;-68
2023/05/28 16:14:14;;;;;;;8.82;7.88;;;;;;;;;;10137526;28;20031;-68
2023/05/28 16:19:11;;;;;;;7.93;6.93;;;;;;;;;;10135938;28;20043;-68
2023/05/28 16:24:07;;;;;;;7.68;6.88;;;;;;;;;;10146727;28;20112;-68
2023/05/28 16:29:04;;;;;;;8.77;7.07;;;;;;;;;;10146323;28;20065;-67
2023/05/28 16:34:00;;;;;;;9.20;7.07;;;;;;;;;;10134644;28;20053;-68
2023/05/28 16:38:57;;;;;;;7.82;6.88;;;;;;;;;;10143216;28;20050;-68
2023/05/28 16:43:54;;;;;;;7.82;6.82;;;;;;;;;;10133674;28;20469;-68
2023/05/28 16:48:52;;;;;;;9.57;7.05;;;;;;;;;;10134713;28;20515;-67
2023/05/28 16:53:49;;;;;;;8.88;6.82;;;;;;;;;;10138937;28;20061;-68
2023/05/28 16:58:47;;;;;;;9.50;6.45;;;;;;;;;;10148675;28;20141;-68
2023/05/28 17:03:43;;;;;;;8.77;6.40;;;;;;;;;;10142553;28;20089;-68
2023/05/28 17:08:40;;;;;;;8.00;6.30;;;;;;;;;;10149051;28;20085;-68
2023/05/28 17:13:36;;;;;;;6.40;5.55;;;;;;;;;;10149102;28;20424;-68
2023/05/28 17:18:32;;;;;;;6.68;5.97;;;;;;;;;;10140772;28;20079;-67
2023/05/28 17:23:29;;;;;;;7.03;5.47;;;;;;;;;;10143493;28;20045;-68
2023/05/28 17:28:26;;;;;;;7.72;6.45;;;;;;;;;;10147494;28;20542;-67
2023/05/28 17:33:22;;;;;;;6.43;5.13;;;;;;;;;;10134409;28;20043;-68
2023/05/28 17:38:19;;;;;;;7.53;5.88;;;;;;;;;;10145587;28;20070;-68
2023/05/28 17:43:15;;;;;;;6.80;5.50;;;;;;;;;;10151595;28;20109;-68
2023/05/28 17:48:11;;;;;;;6.43;5.68;;;;;;;;;;10137867;28;20513;-68
2023/05/28 17:53:08;;;;;;;7.13;5.80;;;;;;;;;;10143989;28;20057;-68
2023/05/28 17:58:04;;;;;;;8.88;5.68;;;;;;;;;;10138797;28;20046;-68
2023/05/28 18:03:01;;;;;;;5.75;5.25;;;;;;;;;;10135104;28;20045;-68
2023/05/28 18:07:58;;;;;;;6.53;5.15;;;;;;;;;;10133649;28;20557;-68
2023/05/28 18:12:54;;;;;;;6.05;4.95;;;;;;;;;;10138133;28;20451;-67
2023/05/28 18:17:51;;;;;;;7.05;5.25;;;;;;;;;;10136520;28;20054;-68
2023/05/28 18:22:49;;;;;;;6.05;5.15;;;;;;;;;;10140731;28;20409;-68
2023/05/28 18:27:46;;;;;;;6.32;5.05;;;;;;;;;;10121685;28;20059;-68
2023/05/28 18:32:43;;;;;;;8.10;5.35;;;;;;;;;;10132398;28;20055;-68
2023/05/28 18:37:39;;;;;;;6.28;4.72;;;;;;;;;;10145722;28;20409;-68
2023/05/28 18:42:35;;;;;;;6.38;5.68;;;;;;;;;;10132592;28;20055;-68
2023/05/28 18:47:32;;;;;;;7.03;5.68;;;;;;;;;;10148556;28;20042;-68
2023/05/28 18:52:29;;;;;;;6.43;5.82;;;;;;;;;;10132167;28;20084;-68
2023/05/28 18:57:26;;;;;;;8.02;5.60;;;;;;;;;;10152025;28;20109;-68
2023/05/28 19:02:24;;;;;;;5.63;5.13;;;;;;;;;;10138477;28;20054;-67
2023/05/28 19:07:24;;;;;;;8.25;6.55;;;;;;;;;;10145616;28;20034;-68
2023/05/28 19:12:21;;;;;;;8.07;5.53;;;;;;;;;;10148356;28;20066;-68
2023/05/28 19:17:17;;;;;;;6.53;5.25;;;;;;;;;;10139833;28;20043;-67
2023/05/28 19:22:14;;;;;;;8.35;5.60;;;;;;;;;;10133649;28;20074;-68
2023/05/28 19:27:10;;;;;;;5.75;5.15;;;;;;;;;;10133989;28;20066;-68
2023/05/28 19:32:07;;;;;;;6.28;5.15;;;;;;;;;;10132302;28;20069;-68
2023/05/28 19:37:03;;;;;;;8.68;5.72;;;;;;;;;;10132092;28;20066;-68
2023/05/28 19:42:00;;;;;;;5.70;5.18;;;;;;;;;;10139609;28;20062;-68
2023/05/28 19:46:56;;;;;;;6.07;5.47;;;;;;;;;;10142883;28;20081;-68
2023/05/28 19:51:52;;;;;;;5.80;5.30;;;;;;;;;;10139709;28;20491;-68
2023/05/28 19:56:48;;;;;;;7.57;6.47;;;;;;;;;;10147751;28;20508;-68
2023/05/28 20:01:45;;;;;;;7.25;5.95;;;;;;;;;;10145249;28;20576;-68
2023/05/28 20:06:42;;;;;;;9.40;5.82;;;;;;;;;;10136926;28;20050;-68
2023/05/28 20:11:38;;;;;;;8.70;5.78;;;;;;;;;;10142635;28;20085;-68
2023/05/28 20:16:36;;;;;;;10.20;5.68;;;;;;;;;;10141057;28;20472;-68
2023/05/28 20:21:32;;;;;;;11.10;5.65;;;;;;;;;;10124274;28;20050;-68
2023/05/28 20:26:28;;;;;;;10.45;6.10;;;;;;;;;;10136785;28;20047;-68
2023/05/28 20:31:25;;;;;;;7.45;5.53;;;;;;;;;;10145680;28;20054;-68
2023/05/28 20:36:22;;;;;;;10.73;6.20;;;;;;;;;;10142425;28;20497;-68
2023/05/28 20:41:19;;;;;;;10.10;5.65;;;;;;;;;;10144186;28;20382;-68
2023/05/28 20:46:16;;;;;;;12.82;6.05;;;;;;;;;;10150295;28;20114;-68
2023/05/28 20:51:12;;;;;;;8.20;6.05;;;;;;;;;;10149624;28;20054;-68
2023/05/28 20:56:08;;;;;;;8.07;5.25;;;;;;;;;;10144715;28;20455;-68
2023/05/28 21:01:05;;;;;;;8.05;5.03;;;;;;;;;;10140847;28;20531;-66
2023/05/28 21:06:01;;;;;;;7.25;5.03;;;;;;;;;;10151117;28;21365;-68
2023/05/28 21:10:58;;;;;;;8.48;5.35;;;;;;;;;;10147728;28;20104;-68
2023/05/28 21:15:54;;;;;;;7.85;5.32;;;;;;;;;;10149988;28;20054;-68
2023/05/28 21:20:50;;;;;;;10.23;5.70;;;;;;;;;;10138872;28;20046;-68
2023/05/28 21:25:47;;;;;;;12.43;5.20;;;;;;;;;;10147916;28;20102;-68
2023/05/28 21:30:43;;;;;;;6.68;5.05;;;;;;;;;;10137103;28;20746;-68
2023/05/28 21:35:42;;;;;;;7.90;5.13;;;;;;;;;;10137934;28;20661;-68
2023/05/28 21:40:38;;;;;;;8.23;5.40;;;;;;;;;;10156105;28;20050;-67
2023/05/28 21:45:34;;;;;;;8.43;5.57;;;;;;;;;;10153891;28;20081;-67
2023/05/28 21:50:31;;;;;;;6.95;5.13;;;;;;;;;;10139606;28;20050;-67
2023/05/28 21:55:27;;;;;;;9.38;4.72;;;;;;;;;;10152597;28;20113;-67
2023/05/28 22:00:25;;;;;;;8.55;5.10;;;;;;;;;;10141164;28;20059;-68
2023/05/28 22:05:23;;;;;;;10.70;5.10;;;;;;;;;;10150647;28;20472;-68
2023/05/28 22:10:19;;;;;;;9.00;4.80;;;;;;;;;;10152452;28;20061;-68
2023/05/28 22:15:16;;;;;;;8.70;5.13;;;;;;;;;;10141021;28;20050;-68
2023/05/28 22:20:12;;;;;;;8.55;4.90;;;;;;;;;;10144381;28;20050;-68
2023/05/28 22:25:10;;;;;;;12.00;4.80;;;;;;;;;;10149329;28;20417;-68
2023/05/28 22:30:07;;;;;;;8.65;4.43;;;;;;;;;;10139174;28;20038;-69
2023/05/28 22:35:06;;;;;;;9.60;4.93;;;;;;;;;;10137809;28;20054;-68
2023/05/28 22:40:04;;;;;;;11.80;4.95;;;;;;;;;;10134143;28;20057;-69
2023/05/28 22:45:03;;;;;;;14.25;5.75;;;;;;;;;;10147664;28;20082;-68
2023/05/28 22:49:59;;;;;;;9.95;4.55;;;;;;;;;;10144086;28;20082;-68
2023/05/28 22:54:56;;;;;;;10.70;5.60;;;;;;;;;;10148692;28;20459;-68
2023/05/28 22:59:53;;;;;;;13.50;4.85;;;;;;;;;;10137424;28;20038;-68
2023/05/28 23:04:49;;;;;;;10.40;5.15;;;;;;;;;;10121849;28;20062;-68
2023/05/28 23:09:46;;;;;;;14.90;4.90;;;;;;;;;;10152718;28;20082;-68
2023/05/28 23:14:42;;;;;;;10.02;5.35;;;;;;;;;;10137869;28;20053;-68
2023/05/28 23:19:40;;;;;;;13.15;4.53;;;;;;;;;;10144285;28;20097;-68
2023/05/28 23:24:37;;;;;;;10.70;4.68;;;;;;;;;;10143177;28;20079;-67
2023/05/28 23:29:35;;;;;;;10.55;5.15;;;;;;;;;;10141787;28;20475;-68
2023/05/28 23:34:32;;;;;;;12.73;4.95;;;;;;;;;;10134885;28;20069;-67
2023/05/28 23:39:28;;;;;;;17.05;6.38;;;;;;;;;;10127225;28;20062;-68
2023/05/28 23:44:25;;;;;;;11.27;4.80;;;;;;;;;;10129698;28;20704;-67
2023/05/28 23:49:21;;;;;;;9.93;5.28;;;;;;;;;;10148563;28;20061;-68
2023/05/28 23:54:18;;;;;;;11.52;5.07;;;;;;;;;;10147417;28;20536;-68
2023/05/28 23:59:14;;;;;;;12.73;5.25;;;;;;;;;;10141222;28;20101;-68
